createdAt,value
2019-05-02T00:00:03.192Z,9.44
2019-05-02T00:01:03.180Z,9.42
2019-05-02T00:02:03.171Z,9.27
2019-05-02T00:03:04.529Z,9.32
2019-05-02T00:04:03.146Z,9.37
2019-05-02T00:05:03.136Z,9.34
2019-05-02T00:06:07.572Z,9.32
2019-05-02T00:07:03.115Z,9.30
2019-05-02T00:08:03.101Z,9.30
2019-05-02T00:09:03.912Z,9.27
2019-05-02T00:10:03.078Z,9.24
2019-05-02T00:11:03.066Z,9.19
2019-05-02T00:12:03.056Z,9.20
2019-05-02T00:13:03.044Z,9.23
2019-05-02T00:14:03.033Z,9.20
2019-05-02T00:15:03.578Z,9.19
2019-05-02T00:16:03.009Z,9.16
2019-05-02T00:17:02.995Z,9.15
2019-05-02T00:18:02.985Z,9.16
2019-05-02T00:19:02.975Z,9.16
2019-05-02T00:20:02.962Z,9.15
2019-05-02T00:21:03.240Z,8.97
2019-05-02T00:22:02.938Z,8.98
2019-05-02T00:23:02.929Z,8.98
2019-05-02T00:24:03.172Z,8.97
2019-05-02T00:25:02.905Z,9.08
2019-05-02T00:26:02.894Z,9.12
2019-05-02T00:27:03.223Z,9.08
2019-05-02T00:28:02.870Z,9.01
2019-05-02T00:29:02.859Z,8.96
2019-05-02T00:30:02.850Z,9.00
2019-05-02T00:31:07.565Z,8.97
2019-05-02T00:32:02.824Z,8.83
2019-05-02T00:33:02.813Z,8.96
2019-05-02T00:34:02.800Z,8.86
2019-05-02T00:35:02.787Z,8.85
2019-05-02T00:36:02.777Z,8.85
2019-05-02T00:37:02.765Z,8.75
2019-05-02T00:38:03.829Z,8.80
2019-05-02T00:39:02.766Z,8.83
2019-05-02T00:40:02.732Z,8.82
2019-05-02T00:41:03.695Z,8.86
2019-05-02T00:42:12.351Z,8.85
2019-05-02T00:43:02.696Z,8.91
2019-05-02T00:44:06.123Z,8.79
2019-05-02T00:45:02.672Z,8.86
2019-05-02T00:46:02.661Z,8.85
2019-05-02T00:47:06.126Z,8.94
2019-05-02T00:48:02.637Z,8.93
2019-05-02T00:49:02.625Z,8.97
2019-05-02T00:50:06.159Z,8.97
2019-05-02T00:51:02.603Z,9.04
2019-05-02T00:52:03.155Z,9.12
2019-05-02T00:53:02.584Z,9.04
2019-05-02T00:54:02.569Z,9.03
2019-05-02T00:55:02.554Z,8.96
2019-05-02T00:56:05.080Z,9.01
2019-05-02T00:57:02.532Z,9.00
2019-05-02T00:58:02.521Z,9.00
2019-05-02T00:59:07.072Z,8.96
2019-05-02T01:00:02.497Z,8.85
2019-05-02T01:01:02.489Z,8.93
2019-05-02T01:02:05.324Z,8.93
2019-05-02T01:03:02.461Z,8.93
2019-05-02T01:04:02.452Z,8.93
2019-05-02T01:05:03.232Z,8.91
2019-05-02T01:06:02.427Z,8.91
2019-05-02T01:07:02.414Z,8.94
2019-05-02T01:08:03.000Z,8.86
2019-05-02T01:09:05.798Z,8.78
2019-05-02T01:10:02.380Z,8.75
2019-05-02T01:11:02.367Z,8.64
2019-05-02T01:12:03.092Z,8.70
2019-05-02T01:13:02.342Z,8.71
2019-05-02T01:14:02.332Z,8.63
2019-05-02T01:15:03.201Z,8.63
2019-05-02T01:16:02.308Z,8.58
2019-05-02T01:17:02.298Z,8.65
2019-05-02T01:18:06.098Z,8.61
2019-05-02T01:19:02.273Z,8.52
2019-05-02T01:20:02.258Z,8.47
2019-05-02T01:21:02.790Z,8.49
2019-05-02T01:22:02.237Z,8.46
2019-05-02T01:23:02.227Z,8.50
2019-05-02T01:24:02.984Z,8.46
2019-05-02T01:25:02.202Z,8.50
2019-05-02T01:26:02.192Z,8.46
2019-05-02T01:27:04.515Z,8.49
2019-05-02T01:28:02.167Z,8.45
2019-05-02T01:29:02.181Z,8.40
2019-05-02T01:30:06.059Z,8.42
2019-05-02T01:31:02.135Z,8.47
2019-05-02T01:32:02.119Z,8.46
2019-05-02T01:33:06.393Z,8.55
2019-05-02T01:34:02.099Z,8.54
2019-05-02T01:35:02.083Z,8.47
2019-05-02T01:36:06.222Z,8.47
2019-05-02T01:37:02.063Z,8.45
2019-05-02T01:38:02.046Z,8.42
2019-05-02T01:39:02.939Z,8.39
2019-05-02T01:40:02.062Z,8.43
2019-05-02T01:41:02.011Z,8.46
2019-05-02T01:42:04.131Z,8.46
2019-05-02T01:43:01.989Z,8.42
2019-05-02T01:44:01.974Z,8.40
2019-05-02T01:45:01.964Z,8.39
2019-05-02T01:46:01.956Z,8.43
2019-05-02T01:47:01.939Z,8.40
2019-05-02T01:48:04.933Z,8.36
2019-05-02T01:49:01.915Z,8.39
2019-05-02T01:50:01.910Z,8.36
2019-05-02T01:51:04.564Z,8.32
2019-05-02T01:52:01.877Z,8.28
2019-05-02T01:53:01.864Z,8.25
2019-05-02T01:54:05.060Z,8.28
2019-05-02T01:55:01.843Z,8.32
2019-05-02T01:56:01.830Z,8.24
2019-05-02T01:57:03.929Z,8.24
2019-05-02T01:58:01.898Z,8.28
2019-05-02T01:59:01.794Z,8.22
2019-05-02T02:00:04.148Z,8.20
2019-05-02T02:01:01.771Z,8.25
2019-05-02T02:02:01.778Z,8.20
2019-05-02T02:03:04.249Z,8.27
2019-05-02T02:04:01.732Z,8.14
2019-05-02T02:05:01.720Z,8.22
2019-05-02T02:06:02.893Z,8.24
2019-05-02T02:07:01.697Z,8.13
2019-05-02T02:08:01.682Z,8.21
2019-05-02T02:09:03.387Z,8.07
2019-05-02T02:10:01.661Z,8.07
2019-05-02T02:11:01.648Z,8.09
2019-05-02T02:12:04.926Z,7.96
2019-05-02T02:13:04.863Z,7.94
2019-05-02T02:14:01.613Z,7.94
2019-05-02T02:15:01.600Z,8.04
2019-05-02T02:16:04.554Z,8.00
2019-05-02T02:17:01.573Z,8.09
2019-05-02T02:18:01.562Z,8.09
2019-05-02T02:19:03.994Z,8.21
2019-05-02T02:20:01.535Z,8.29
2019-05-02T02:21:01.526Z,8.28
2019-05-02T02:22:02.698Z,8.32
2019-05-02T02:23:01.499Z,8.29
2019-05-02T02:24:01.490Z,8.22
2019-05-02T02:25:02.906Z,8.22
2019-05-02T02:26:01.462Z,8.10
2019-05-02T02:27:01.452Z,8.07
2019-05-02T02:28:01.435Z,8.07
2019-05-02T02:29:03.021Z,8.02
2019-05-02T02:30:01.424Z,7.95
2019-05-02T02:31:04.836Z,7.96
2019-05-02T02:32:01.390Z,7.96
2019-05-02T02:33:07.797Z,8.09
2019-05-02T02:34:01.366Z,8.14
2019-05-02T02:35:03.372Z,8.18
2019-05-02T02:36:01.340Z,8.24
2019-05-02T02:37:05.414Z,8.17
2019-05-02T02:38:01.317Z,8.14
2019-05-02T02:39:07.211Z,8.06
2019-05-02T02:40:01.295Z,8.07
2019-05-02T02:41:06.588Z,8.09
2019-05-02T02:42:01.268Z,8.06
2019-05-02T02:43:12.768Z,8.03
2019-05-02T02:44:02.902Z,8.04
2019-05-02T02:45:01.230Z,7.94
2019-05-02T02:46:01.233Z,8.07
2019-05-02T02:47:01.204Z,7.95
2019-05-02T02:48:02.569Z,7.96
2019-05-02T02:49:01.182Z,7.99
2019-05-02T02:50:02.335Z,7.92
2019-05-02T02:51:01.155Z,7.91
2019-05-02T02:52:04.747Z,7.85
2019-05-02T02:53:01.128Z,7.86
2019-05-02T02:54:04.047Z,7.85
2019-05-02T02:55:01.105Z,7.81
2019-05-02T02:56:03.441Z,7.74
2019-05-02T02:57:01.078Z,7.77
2019-05-02T02:58:04.689Z,7.74
2019-05-02T02:59:01.055Z,7.89
2019-05-02T03:00:07.620Z,7.99
2019-05-02T03:01:01.048Z,7.92
2019-05-02T03:02:08.965Z,7.95
2019-05-02T03:03:01.008Z,7.91
2019-05-02T03:04:01.952Z,7.85
2019-05-02T03:05:00.977Z,7.77
2019-05-02T03:06:05.686Z,7.76
2019-05-02T03:07:00.954Z,7.70
2019-05-02T03:08:05.544Z,7.70
2019-05-02T03:09:00.930Z,7.69
2019-05-02T03:10:06.217Z,7.71
2019-05-02T03:11:00.998Z,7.69
2019-05-02T03:12:01.954Z,7.70
2019-05-02T03:13:00.878Z,7.67
2019-05-02T03:14:07.593Z,7.70
2019-05-02T03:15:00.853Z,7.66
2019-05-02T03:16:06.804Z,7.73
2019-05-02T03:17:00.827Z,7.70
2019-05-02T03:18:02.217Z,7.91
2019-05-02T03:19:00.804Z,7.86
2019-05-02T03:20:03.560Z,7.89
2019-05-02T03:21:00.787Z,7.81
2019-05-02T03:22:03.423Z,7.79
2019-05-02T03:23:00.754Z,7.74
2019-05-02T03:24:03.387Z,7.81
2019-05-02T03:25:00.744Z,7.70
2019-05-02T03:26:00.716Z,7.67
2019-05-02T03:27:00.703Z,7.71
2019-05-02T03:28:00.692Z,7.55
2019-05-02T03:29:00.982Z,7.63
2019-05-02T03:30:00.667Z,7.82
2019-05-02T03:31:11.218Z,7.81
2019-05-02T03:32:13.422Z,7.79
2019-05-02T03:33:09.697Z,7.79
2019-05-02T03:34:01.462Z,7.86
2019-05-02T03:35:00.602Z,8.00
2019-05-02T03:36:00.606Z,7.99
2019-05-02T03:37:03.320Z,7.99
2019-05-02T03:38:00.568Z,8.07
2019-05-02T03:39:06.624Z,7.94
2019-05-02T03:40:00.868Z,7.95
2019-05-02T03:41:00.527Z,7.89
2019-05-02T03:42:03.123Z,7.74
2019-05-02T03:43:00.501Z,7.71
2019-05-02T03:44:10.507Z,7.69
2019-05-02T03:45:04.808Z,7.60
2019-05-02T03:46:00.493Z,7.67
2019-05-02T03:47:02.296Z,7.63
2019-05-02T03:48:00.439Z,7.63
2019-05-02T03:49:07.367Z,7.67
2019-05-02T03:50:00.415Z,7.67
2019-05-02T03:51:04.675Z,7.74
2019-05-02T03:52:02.644Z,7.71
2019-05-02T03:53:00.394Z,7.67
2019-05-02T03:54:07.292Z,7.62
2019-05-02T03:55:00.360Z,7.63
2019-05-02T03:56:10.687Z,7.74
2019-05-02T03:57:00.325Z,7.69
2019-05-02T03:58:00.320Z,7.76
2019-05-02T03:59:00.324Z,7.63
2019-05-02T04:00:00.301Z,7.58
2019-05-02T04:01:03.565Z,7.70
2019-05-02T04:02:00.262Z,7.67
2019-05-02T04:03:02.374Z,7.67
2019-05-02T04:04:00.238Z,7.50
2019-05-02T04:05:02.551Z,7.57
2019-05-02T04:06:00.209Z,7.70
2019-05-02T04:07:01.184Z,7.66
2019-05-02T04:08:00.189Z,7.69
2019-05-02T04:09:01.891Z,7.73
2019-05-02T04:10:00.161Z,7.69
2019-05-02T04:11:01.861Z,7.76
2019-05-02T04:12:00.134Z,7.77
2019-05-02T04:13:00.165Z,7.82
2019-05-02T04:14:00.113Z,7.89
2019-05-02T04:15:00.098Z,7.96
2019-05-02T04:16:00.085Z,7.92
2019-05-02T04:17:00.072Z,7.88
2019-05-02T04:18:00.061Z,7.82
2019-05-02T04:19:00.047Z,7.71
2019-05-02T04:20:00.031Z,7.79
2019-05-02T04:21:00.022Z,7.79
2019-05-02T04:22:01.453Z,7.77
2019-05-02T04:22:59.997Z,7.74
2019-05-02T04:24:59.982Z,7.76
2019-05-02T04:25:59.956Z,7.76
2019-05-02T04:26:59.948Z,7.79
2019-05-02T04:27:59.940Z,7.74
2019-05-02T04:28:59.921Z,7.91
2019-05-02T04:30:09.744Z,7.89
2019-05-02T04:30:59.896Z,7.94
2019-05-02T04:32:04.561Z,7.96
2019-05-02T04:32:59.868Z,8.04
2019-05-02T04:33:59.855Z,8.07
2019-05-02T04:34:59.848Z,8.25
2019-05-02T04:35:59.836Z,8.24
2019-05-02T04:37:03.413Z,8.24
2019-05-02T04:38:02.720Z,8.24
2019-05-02T04:39:05.521Z,8.13
2019-05-02T04:40:03.230Z,8.12
2019-05-02T04:40:59.770Z,8.22
2019-05-02T04:42:05.201Z,8.20
2019-05-02T04:43:02.155Z,8.46
2019-05-02T04:44:01.561Z,8.93
2019-05-02T04:45:13.940Z,9.23
2019-05-02T04:46:00.308Z,9.59
2019-05-02T04:47:09.942Z,10.01
2019-05-02T04:48:03.918Z,10.29
2019-05-02T04:48:59.669Z,10.55
2019-05-02T04:49:59.669Z,10.72
2019-05-02T04:51:10.260Z,11.01
2019-05-02T04:52:06.387Z,11.24
2019-05-02T04:52:59.628Z,11.36
2019-05-02T04:53:59.614Z,11.59
2019-05-02T04:55:08.351Z,11.75
2019-05-02T04:56:04.321Z,11.78
2019-05-02T04:57:02.360Z,11.70
2019-05-02T04:58:01.808Z,11.41
2019-05-02T04:59:01.872Z,11.11
2019-05-02T05:00:06.231Z,11.23
2019-05-02T05:01:01.825Z,11.20
2019-05-02T05:02:01.390Z,10.98
2019-05-02T05:02:59.524Z,10.62
2019-05-02T05:04:03.211Z,10.80
2019-05-02T05:04:59.504Z,11.27
2019-05-02T05:06:07.151Z,11.49
2019-05-02T05:07:01.239Z,11.64
2019-05-02T05:07:59.471Z,11.81
2019-05-02T05:09:04.209Z,11.88
2019-05-02T05:10:03.010Z,12.00
2019-05-02T05:10:59.439Z,11.97
2019-05-02T05:12:02.562Z,11.93
2019-05-02T05:12:59.420Z,11.94
2019-05-02T05:14:00.412Z,11.84
2019-05-02T05:15:00.466Z,11.81
2019-05-02T05:16:02.924Z,11.81
2019-05-02T05:16:59.378Z,11.81
2019-05-02T05:17:59.368Z,11.81
2019-05-02T05:19:00.096Z,11.72
2019-05-02T05:20:00.161Z,11.77
2019-05-02T05:20:59.334Z,11.82
2019-05-02T05:22:04.660Z,11.77
2019-05-02T05:22:59.316Z,11.78
2019-05-02T05:24:01.362Z,12.00
2019-05-02T05:24:59.295Z,11.88
2019-05-02T05:26:03.442Z,12.00
2019-05-02T05:27:00.151Z,12.03
2019-05-02T05:28:05.542Z,12.08
2019-05-02T05:28:59.254Z,12.12
2019-05-02T05:30:07.481Z,12.16
2019-05-02T05:30:59.235Z,12.26
2019-05-02T05:32:05.402Z,12.21
2019-05-02T05:32:59.216Z,12.34
2019-05-02T05:33:59.211Z,12.29
2019-05-02T05:35:03.277Z,12.31
2019-05-02T05:35:59.187Z,12.31
2019-05-02T05:37:03.736Z,12.29
2019-05-02T05:37:59.168Z,12.37
2019-05-02T05:39:03.022Z,12.51
2019-05-02T05:39:59.143Z,12.43
2019-05-02T05:41:03.075Z,12.61
2019-05-02T05:41:59.127Z,12.58
2019-05-02T05:43:02.727Z,12.63
2019-05-02T05:43:59.109Z,12.66
2019-05-02T05:45:03.924Z,12.69
2019-05-02T05:46:09.351Z,12.79
2019-05-02T05:46:59.080Z,12.85
2019-05-02T05:48:01.066Z,12.95
2019-05-02T05:48:59.059Z,13.10
2019-05-02T05:50:01.002Z,13.01
2019-05-02T05:50:59.041Z,13.09
2019-05-02T05:52:02.297Z,13.10
2019-05-02T05:52:59.553Z,13.17
2019-05-02T05:54:03.011Z,13.32
2019-05-02T05:54:59.009Z,13.43
2019-05-02T05:56:02.451Z,13.36
2019-05-02T05:56:58.981Z,13.32
2019-05-02T05:58:03.192Z,13.41
2019-05-02T05:58:59.307Z,13.48
2019-05-02T06:00:03.852Z,13.63
2019-05-02T06:00:58.949Z,13.55
2019-05-02T06:01:58.936Z,13.66
2019-05-02T06:03:09.976Z,13.65
2019-05-02T06:03:58.914Z,13.69
2019-05-02T06:05:02.104Z,13.75
2019-05-02T06:05:58.897Z,13.69
2019-05-02T06:07:02.940Z,13.81
2019-05-02T06:07:58.881Z,13.96
2019-05-02T06:08:58.870Z,14.01
2019-05-02T06:10:02.241Z,14.02
2019-05-02T06:10:58.856Z,14.06
2019-05-02T06:11:58.844Z,14.04
2019-05-02T06:12:58.835Z,14.05
2019-05-02T06:13:58.829Z,14.02
2019-05-02T06:15:01.927Z,14.09
2019-05-02T06:16:02.554Z,14.12
2019-05-02T06:16:58.805Z,14.13
2019-05-02T06:18:00.057Z,14.24
2019-05-02T06:18:58.784Z,14.23
2019-05-02T06:19:58.776Z,14.23
2019-05-02T06:21:03.300Z,14.29
2019-05-02T06:21:58.758Z,14.29
2019-05-02T06:23:00.070Z,14.24
2019-05-02T06:23:58.740Z,14.41
2019-05-02T06:24:58.734Z,14.45
2019-05-02T06:25:58.733Z,14.46
2019-05-02T06:26:58.713Z,14.48
2019-05-02T06:28:00.207Z,14.60
2019-05-02T06:28:58.699Z,14.61
2019-05-02T06:29:58.687Z,14.74
2019-05-02T06:31:02.250Z,14.67
2019-05-02T06:31:58.673Z,14.79
2019-05-02T06:32:58.663Z,14.83
2019-05-02T06:34:02.209Z,14.97
2019-05-02T06:34:58.644Z,14.95
2019-05-02T06:36:01.478Z,15.04
2019-05-02T06:36:58.630Z,15.12
2019-05-02T06:37:58.623Z,15.12
2019-05-02T06:38:58.615Z,15.19
2019-05-02T06:40:03.141Z,15.23
2019-05-02T06:40:58.599Z,15.23
2019-05-02T06:41:58.715Z,15.34
2019-05-02T06:42:58.583Z,15.34
2019-05-02T06:43:58.570Z,15.35
2019-05-02T06:44:59.713Z,15.37
2019-05-02T06:45:58.558Z,15.46
2019-05-02T06:46:59.250Z,15.44
2019-05-02T06:48:01.118Z,15.44
2019-05-02T06:48:58.534Z,15.46
2019-05-02T06:50:01.191Z,15.52
2019-05-02T06:50:58.527Z,15.55
2019-05-02T06:51:58.508Z,15.62
2019-05-02T06:52:58.502Z,15.60
2019-05-02T06:53:58.494Z,15.53
2019-05-02T06:54:59.160Z,15.49
2019-05-02T06:55:58.479Z,15.59
2019-05-02T06:56:58.483Z,15.64
2019-05-02T06:58:02.907Z,15.55
2019-05-02T06:58:58.457Z,15.58
2019-05-02T06:59:58.449Z,15.74
2019-05-02T07:00:59.117Z,15.85
2019-05-02T07:01:58.807Z,15.86
2019-05-02T07:02:58.426Z,15.99
2019-05-02T07:03:58.417Z,16.11
2019-05-02T07:04:58.410Z,16.18
2019-05-02T07:06:02.425Z,16.32
2019-05-02T07:06:59.754Z,16.36
2019-05-02T07:07:58.409Z,16.36
2019-05-02T07:08:59.705Z,16.30
2019-05-02T07:09:58.381Z,16.34
2019-05-02T07:11:01.548Z,16.37
2019-05-02T07:12:01.385Z,16.41
2019-05-02T07:13:10.167Z,16.34
2019-05-02T07:14:11.811Z,16.36
2019-05-02T07:15:01.519Z,16.48
2019-05-02T07:15:58.333Z,16.47
2019-05-02T07:16:58.324Z,16.50
2019-05-02T07:17:58.328Z,16.55
2019-05-02T07:18:58.313Z,16.65
2019-05-02T07:19:58.869Z,16.75
2019-05-02T07:20:58.298Z,16.78
2019-05-02T07:22:00.377Z,16.98
2019-05-02T07:22:58.282Z,16.99
2019-05-02T07:23:58.271Z,17.07
2019-05-02T07:25:01.942Z,17.21
2019-05-02T07:26:00.238Z,17.28
2019-05-02T07:26:58.255Z,17.39
2019-05-02T07:27:58.243Z,17.33
2019-05-02T07:28:58.240Z,17.45
2019-05-02T07:29:59.673Z,17.30
2019-05-02T07:30:58.226Z,17.40
2019-05-02T07:31:58.219Z,17.39
2019-05-02T07:33:01.226Z,17.27
2019-05-02T07:33:58.203Z,17.21
2019-05-02T07:34:58.194Z,17.24
2019-05-02T07:36:00.096Z,17.27
2019-05-02T07:36:58.184Z,17.25
2019-05-02T07:37:58.178Z,17.21
2019-05-02T07:39:04.967Z,17.25
2019-05-02T07:39:58.162Z,17.28
2019-05-02T07:40:58.155Z,17.30
2019-05-02T07:42:00.609Z,17.28
2019-05-02T07:42:58.145Z,17.24
2019-05-02T07:43:58.134Z,17.28
2019-05-02T07:44:58.127Z,17.39
2019-05-02T07:45:58.122Z,17.53
2019-05-02T07:47:02.628Z,17.53
2019-05-02T07:48:01.220Z,17.45
2019-05-02T07:48:58.104Z,17.40
2019-05-02T07:49:58.096Z,17.63
2019-05-02T07:50:58.092Z,17.70
2019-05-02T07:51:58.987Z,17.76
2019-05-02T07:52:58.076Z,17.83
2019-05-02T07:53:58.074Z,17.92
2019-05-02T07:55:01.096Z,18.01
2019-05-02T07:55:58.057Z,17.92
2019-05-02T07:56:58.051Z,18.01
2019-05-02T07:58:02.032Z,17.99
2019-05-02T07:58:58.038Z,18.04
2019-05-02T08:00:00.606Z,18.19
2019-05-02T08:00:58.028Z,18.23
2019-05-02T08:01:58.025Z,18.17
2019-05-02T08:02:59.362Z,18.20
2019-05-02T08:04:04.007Z,18.16
2019-05-02T08:04:58.005Z,18.25
2019-05-02T08:05:58.549Z,18.32
2019-05-02T08:06:57.989Z,18.26
2019-05-02T08:07:57.983Z,18.39
2019-05-02T08:09:01.702Z,18.47
2019-05-02T08:09:58.002Z,18.39
2019-05-02T08:11:01.818Z,18.42
2019-05-02T08:11:57.976Z,18.47
2019-05-02T08:12:57.955Z,18.57
2019-05-02T08:14:00.463Z,18.68
2019-05-02T08:15:00.301Z,18.71
2019-05-02T08:15:57.935Z,18.72
2019-05-02T08:17:05.496Z,18.56
2019-05-02T08:17:57.922Z,18.72
2019-05-02T08:19:01.398Z,18.75
2019-05-02T08:19:57.913Z,18.97
2019-05-02T08:20:57.908Z,19.01
2019-05-02T08:21:57.902Z,19.13
2019-05-02T08:22:57.895Z,19.17
2019-05-02T08:24:02.329Z,19.16
2019-05-02T08:24:57.883Z,19.06
2019-05-02T08:25:57.877Z,19.15
2019-05-02T08:26:58.246Z,19.24
2019-05-02T08:27:57.870Z,19.30
2019-05-02T08:28:57.864Z,19.32
2019-05-02T08:30:00.113Z,19.35
2019-05-02T08:30:57.850Z,19.49
2019-05-02T08:31:57.846Z,19.62
2019-05-02T08:32:57.842Z,19.65
2019-05-02T08:33:57.834Z,19.68
2019-05-02T08:34:57.830Z,19.80
2019-05-02T08:35:57.824Z,19.85
2019-05-02T08:36:58.911Z,19.85
2019-05-02T08:37:57.815Z,19.87
2019-05-02T08:38:57.815Z,19.95
2019-05-02T08:39:57.803Z,20.04
2019-05-02T08:40:57.803Z,20.07
2019-05-02T08:41:57.947Z,20.02
2019-05-02T08:42:57.787Z,20.07
2019-05-02T08:43:57.787Z,20.02
2019-05-02T08:45:00.968Z,20.01
2019-05-02T08:45:57.776Z,20.10
2019-05-02T08:46:57.768Z,20.00
2019-05-02T08:48:00.243Z,20.08
2019-05-02T08:48:57.759Z,20.13
2019-05-02T08:49:57.757Z,20.07
2019-05-02T08:50:57.749Z,20.16
2019-05-02T08:51:57.748Z,20.19
2019-05-02T08:52:57.740Z,20.30
2019-05-02T08:53:58.691Z,20.34
2019-05-02T08:54:57.731Z,20.46
2019-05-02T08:55:57.727Z,20.64
2019-05-02T08:56:59.104Z,20.63
2019-05-02T08:57:57.715Z,20.61
2019-05-02T08:58:57.715Z,20.69
2019-05-02T09:00:00.213Z,20.66
2019-05-02T09:00:57.703Z,20.61
2019-05-02T09:01:57.699Z,20.56
2019-05-02T09:03:02.747Z,20.50
2019-05-02T09:03:57.691Z,20.34
2019-05-02T09:04:58.990Z,20.22
2019-05-02T09:06:05.638Z,20.26
2019-05-02T09:06:58.733Z,20.35
2019-05-02T09:07:57.671Z,20.41
2019-05-02T09:08:57.666Z,20.38
2019-05-02T09:10:00.263Z,20.38
2019-05-02T09:10:57.657Z,20.50
2019-05-02T09:12:11.437Z,20.60
2019-05-02T09:12:57.648Z,20.63
2019-05-02T09:13:57.643Z,20.64
2019-05-02T09:14:57.639Z,20.66
2019-05-02T09:15:57.636Z,20.71
2019-05-02T09:17:00.194Z,20.75
2019-05-02T09:17:57.626Z,20.88
2019-05-02T09:18:57.619Z,20.83
2019-05-02T09:20:02.386Z,20.87
2019-05-02T09:20:57.613Z,20.88
2019-05-02T09:21:57.608Z,20.88
2019-05-02T09:22:57.604Z,20.85
2019-05-02T09:23:57.601Z,20.90
2019-05-02T09:24:57.597Z,20.85
2019-05-02T09:25:57.593Z,20.93
2019-05-02T09:26:57.588Z,20.97
2019-05-02T09:27:57.585Z,21.12
2019-05-02T09:29:01.624Z,21.19
2019-05-02T09:29:57.575Z,21.26
2019-05-02T09:31:02.272Z,21.16
2019-05-02T09:31:57.566Z,21.06
2019-05-02T09:33:02.826Z,20.94
2019-05-02T09:33:57.618Z,21.05
2019-05-02T09:35:02.116Z,20.94
2019-05-02T09:35:57.547Z,20.93
2019-05-02T09:36:57.542Z,20.90
2019-05-02T09:37:57.540Z,20.93
2019-05-02T09:38:57.787Z,21.00
2019-05-02T09:39:57.534Z,20.91
2019-05-02T09:40:57.529Z,20.90
2019-05-02T09:41:57.524Z,20.94
2019-05-02T09:43:01.939Z,20.91
2019-05-02T09:43:57.517Z,21.03
2019-05-02T09:44:57.513Z,20.98
2019-05-02T09:45:57.506Z,21.03
2019-05-02T09:46:57.552Z,20.93
2019-05-02T09:48:05.251Z,20.91
2019-05-02T09:49:04.347Z,21.00
2019-05-02T09:49:57.492Z,21.01
2019-05-02T09:50:58.075Z,21.16
2019-05-02T09:51:59.763Z,21.15
2019-05-02T09:52:57.475Z,21.36
2019-05-02T09:54:02.658Z,21.27
2019-05-02T09:54:57.469Z,21.45
2019-05-02T09:55:58.129Z,21.37
2019-05-02T09:56:57.460Z,21.37
2019-05-02T09:57:57.457Z,21.51
2019-05-02T09:59:04.789Z,21.27
2019-05-02T09:59:57.449Z,21.27
2019-05-02T10:00:57.442Z,21.08
2019-05-02T10:01:57.440Z,21.13
2019-05-02T10:02:57.437Z,20.82
2019-05-02T10:03:57.435Z,20.71
2019-05-02T10:04:57.434Z,20.66
2019-05-02T10:05:57.425Z,20.56
2019-05-02T10:06:57.424Z,20.78
2019-05-02T10:08:02.091Z,21.00
2019-05-02T10:08:57.418Z,20.90
2019-05-02T10:09:57.628Z,20.93
2019-05-02T10:10:57.406Z,21.01
2019-05-02T10:11:57.423Z,21.05
2019-05-02T10:12:57.410Z,21.05
2019-05-02T10:13:57.398Z,21.22
2019-05-02T10:14:57.399Z,21.09
2019-05-02T10:15:57.394Z,21.09
2019-05-02T10:16:57.647Z,20.37
2019-05-02T10:18:08.850Z,20.48
2019-05-02T10:19:00.316Z,20.68
2019-05-02T10:19:57.404Z,20.87
2019-05-02T10:20:57.362Z,20.94
2019-05-02T10:21:57.366Z,20.90
2019-05-02T10:22:57.353Z,21.06
2019-05-02T10:23:59.554Z,20.97
2019-05-02T10:24:57.349Z,21.15
2019-05-02T10:25:57.344Z,21.03
2019-05-02T10:27:04.025Z,20.69
2019-05-02T10:27:57.338Z,20.90
2019-05-02T10:28:57.332Z,21.03
2019-05-02T10:30:01.907Z,21.27
2019-05-02T10:30:57.375Z,21.36
2019-05-02T10:31:57.319Z,21.58
2019-05-02T10:32:57.457Z,21.52
2019-05-02T10:33:57.308Z,21.48
2019-05-02T10:34:57.306Z,21.12
2019-05-02T10:35:57.299Z,20.63
2019-05-02T10:36:58.866Z,20.30
2019-05-02T10:37:57.292Z,20.08
2019-05-02T10:38:59.253Z,20.04
2019-05-02T10:39:57.286Z,20.20
2019-05-02T10:41:01.504Z,20.34
2019-05-02T10:41:57.668Z,20.51
2019-05-02T10:42:57.271Z,20.25
2019-05-02T10:43:59.514Z,20.31
2019-05-02T10:44:57.261Z,20.19
2019-05-02T10:45:57.261Z,19.95
2019-05-02T10:46:57.255Z,19.78
2019-05-02T10:47:57.252Z,19.86
2019-05-02T10:48:57.248Z,20.01
2019-05-02T10:49:57.239Z,20.04
2019-05-02T10:50:57.237Z,20.27
2019-05-02T10:51:57.232Z,20.46
2019-05-02T10:52:57.231Z,20.63
2019-05-02T10:53:57.224Z,20.88
2019-05-02T10:54:57.222Z,21.01
2019-05-02T10:55:57.215Z,21.18
2019-05-02T10:56:57.208Z,21.34
2019-05-02T10:57:57.205Z,21.06
2019-05-02T10:58:57.201Z,20.91
2019-05-02T10:59:57.197Z,21.09
2019-05-02T11:00:57.194Z,21.12
2019-05-02T11:01:57.189Z,21.31
2019-05-02T11:02:57.186Z,20.98
2019-05-02T11:03:57.180Z,21.00
2019-05-02T11:04:57.175Z,21.05
2019-05-02T11:05:57.959Z,21.00
2019-05-02T11:06:57.169Z,20.96
2019-05-02T11:08:04.639Z,21.01
2019-05-02T11:08:57.160Z,21.16
2019-05-02T11:10:02.138Z,21.09
2019-05-02T11:10:57.150Z,21.33
2019-05-02T11:11:57.148Z,21.37
2019-05-02T11:12:57.142Z,21.53
2019-05-02T11:14:00.439Z,21.71
2019-05-02T11:14:57.144Z,21.48
2019-05-02T11:15:57.140Z,20.90
2019-05-02T11:16:57.126Z,20.90
2019-05-02T11:17:57.120Z,20.73
2019-05-02T11:18:57.119Z,20.58
2019-05-02T11:19:57.111Z,20.57
2019-05-02T11:20:59.090Z,20.76
2019-05-02T11:21:59.058Z,20.93
2019-05-02T11:22:57.098Z,20.91
2019-05-02T11:23:57.278Z,21.13
2019-05-02T11:24:57.090Z,21.46
2019-05-02T11:25:57.087Z,21.55
2019-05-02T11:26:57.083Z,21.33
2019-05-02T11:27:57.329Z,21.13
2019-05-02T11:28:57.076Z,21.16
2019-05-02T11:29:57.068Z,20.81
2019-05-02T11:31:01.506Z,20.37
2019-05-02T11:31:57.061Z,20.50
2019-05-02T11:32:57.059Z,20.56
2019-05-02T11:33:57.053Z,20.66
2019-05-02T11:34:57.047Z,20.85
2019-05-02T11:35:57.043Z,20.63
2019-05-02T11:36:57.038Z,20.41
2019-05-02T11:37:57.034Z,20.16
2019-05-02T11:39:05.724Z,20.34
2019-05-02T11:40:00.177Z,20.30
2019-05-02T11:40:57.022Z,20.48
2019-05-02T11:41:57.022Z,20.68
2019-05-02T11:43:01.453Z,20.63
2019-05-02T11:43:57.007Z,20.33
2019-05-02T11:44:57.009Z,20.46
2019-05-02T11:46:02.401Z,20.54
2019-05-02T11:46:56.996Z,20.64
2019-05-02T11:48:03.372Z,20.73
2019-05-02T11:48:58.699Z,20.85
2019-05-02T11:49:56.989Z,20.88
2019-05-02T11:50:58.164Z,20.85
2019-05-02T11:51:57.332Z,21.01
2019-05-02T11:52:56.965Z,20.93
2019-05-02T11:53:59.272Z,20.90
2019-05-02T11:54:56.958Z,20.91
2019-05-02T11:55:58.355Z,20.91
2019-05-02T11:56:56.950Z,20.87
2019-05-02T11:58:01.063Z,20.71
2019-05-02T11:58:56.942Z,20.64
2019-05-02T11:59:59.494Z,20.63
2019-05-02T12:00:56.933Z,20.51
2019-05-02T12:01:59.999Z,20.46
2019-05-02T12:02:58.366Z,20.33
2019-05-02T12:03:56.917Z,20.26
2019-05-02T12:04:56.914Z,20.05
2019-05-02T12:05:56.911Z,19.83
2019-05-02T12:07:01.065Z,19.62
2019-05-02T12:08:02.603Z,19.49
2019-05-02T12:08:56.893Z,19.42
2019-05-02T12:09:57.351Z,19.31
2019-05-02T12:10:56.885Z,19.15
2019-05-02T12:11:56.882Z,19.13
2019-05-02T12:12:56.872Z,19.01
2019-05-02T12:13:57.179Z,18.91
2019-05-02T12:14:56.865Z,18.79
2019-05-02T12:15:56.859Z,18.75
2019-05-02T12:16:56.854Z,18.69
2019-05-02T12:17:56.850Z,18.57
2019-05-02T12:19:08.672Z,18.57
2019-05-02T12:19:56.839Z,18.49
2019-05-02T12:20:56.833Z,18.38
2019-05-02T12:21:56.833Z,18.28
2019-05-02T12:22:56.825Z,18.28
2019-05-02T12:23:56.816Z,18.34
2019-05-02T12:24:56.826Z,18.32
2019-05-02T12:25:56.805Z,18.31
2019-05-02T12:26:56.799Z,18.28
2019-05-02T12:27:56.795Z,18.34
2019-05-02T12:28:56.787Z,18.31
2019-05-02T12:29:59.245Z,18.31
2019-05-02T12:30:56.780Z,18.28
2019-05-02T12:31:56.771Z,18.25
2019-05-02T12:32:56.766Z,18.29
2019-05-02T12:33:56.761Z,18.07
2019-05-02T12:34:56.753Z,18.01
2019-05-02T12:35:56.749Z,18.02
2019-05-02T12:36:56.741Z,18.04
2019-05-02T12:37:56.738Z,17.94
2019-05-02T12:38:56.731Z,17.89
2019-05-02T12:39:56.723Z,17.98
2019-05-02T12:40:58.012Z,17.86
2019-05-02T12:41:57.040Z,17.80
2019-05-02T12:42:56.709Z,17.91
2019-05-02T12:43:56.701Z,17.91
2019-05-02T12:44:56.695Z,17.87
2019-05-02T12:45:56.689Z,17.92
2019-05-02T12:46:56.681Z,17.91
2019-05-02T12:47:56.677Z,17.86
2019-05-02T12:48:56.673Z,17.95
2019-05-02T12:49:56.663Z,17.98
2019-05-02T12:50:56.660Z,18.02
2019-05-02T12:51:56.651Z,17.77
2019-05-02T12:52:56.725Z,17.84
2019-05-02T12:53:56.641Z,17.79
2019-05-02T12:54:56.634Z,17.79
2019-05-02T12:55:56.629Z,17.77
2019-05-02T12:56:56.624Z,17.79
2019-05-02T12:57:56.616Z,17.74
2019-05-02T12:58:56.610Z,17.66
2019-05-02T12:59:56.603Z,17.80
2019-05-02T13:00:56.599Z,17.76
2019-05-02T13:01:56.590Z,17.70